createdAt,value
2017-12-22T00:01:56.447Z,9.33
2017-12-22T00:04:23.922Z,13.43
2017-12-22T00:06:51.372Z,6.27
2017-12-22T00:09:18.821Z,9.93
2017-12-22T00:11:46.283Z,6.17
2017-12-22T00:14:13.732Z,11.10
2017-12-22T00:16:41.174Z,5.87
2017-12-22T00:19:08.636Z,4.30
2017-12-22T00:21:36.078Z,5.37
2017-12-22T00:24:03.526Z,5.83
2017-12-22T00:26:31.756Z,5.63
2017-12-22T00:28:59.215Z,7.20
2017-12-22T00:31:26.667Z,4.30
2017-12-22T00:33:54.132Z,5.97
2017-12-22T00:36:21.578Z,5.40
2017-12-22T00:38:49.023Z,4.10
2017-12-22T00:41:16.486Z,4.50
2017-12-22T00:43:43.944Z,4.90
2017-12-22T00:46:11.400Z,4.53
2017-12-22T00:48:38.865Z,3.13
2017-12-22T00:51:06.315Z,3.43
2017-12-22T00:53:33.802Z,4.63
2017-12-22T00:56:01.261Z,3.33
2017-12-22T00:58:28.716Z,4.77
2017-12-22T01:00:56.158Z,4.00
2017-12-22T01:03:23.632Z,4.80
2017-12-22T01:05:51.079Z,4.73
2017-12-22T01:08:18.530Z,4.90
2017-12-22T01:10:45.991Z,4.10
2017-12-22T01:13:13.481Z,6.37
2017-12-22T01:15:46.595Z,5.90
2017-12-22T01:18:19.791Z,5.67
2017-12-22T01:20:47.252Z,6.00
2017-12-22T01:23:14.730Z,3.97
2017-12-22T01:25:42.187Z,3.70
2017-12-22T01:28:09.657Z,7.57
2017-12-22T01:30:37.120Z,5.20
2017-12-22T01:33:04.562Z,6.37
2017-12-22T01:35:32.031Z,4.20
2017-12-22T01:37:59.471Z,5.37
2017-12-22T01:40:26.919Z,3.57
2017-12-22T01:42:54.415Z,2.80
2017-12-22T01:45:21.902Z,4.17
2017-12-22T01:47:49.357Z,3.70
2017-12-22T01:50:16.827Z,3.27
2017-12-22T01:52:44.281Z,2.97
2017-12-22T01:55:11.729Z,5.00
2017-12-22T01:57:39.196Z,10.70
2017-12-22T02:00:06.647Z,5.00
2017-12-22T02:02:34.108Z,5.13
2017-12-22T02:05:01.569Z,7.80
2017-12-22T02:07:29.020Z,6.67
2017-12-22T02:09:56.469Z,10.30
2017-12-22T02:12:23.940Z,12.33
2017-12-22T02:14:51.395Z,11.70
2017-12-22T02:17:18.911Z,14.63
2017-12-22T02:19:46.319Z,8.93
2017-12-22T02:22:13.811Z,11.17
2017-12-22T02:24:41.254Z,12.23
2017-12-22T02:27:08.721Z,15.33
2017-12-22T02:29:36.170Z,18.10
2017-12-22T02:32:03.628Z,11.40
2017-12-22T02:34:31.141Z,14.80
2017-12-22T02:36:58.584Z,10.33
2017-12-22T02:39:26.030Z,11.60
2017-12-22T02:41:54.261Z,9.60
2017-12-22T02:44:21.711Z,10.40
2017-12-22T02:46:49.155Z,9.73
2017-12-22T02:49:16.626Z,7.67
2017-12-22T02:51:44.079Z,6.77
2017-12-22T02:54:11.535Z,9.47
2017-12-22T02:56:38.995Z,8.87
2017-12-22T02:59:06.442Z,10.07
2017-12-22T03:01:33.927Z,10.80
2017-12-22T03:04:01.405Z,9.03
2017-12-22T03:06:29.618Z,10.03
2017-12-22T03:08:57.070Z,19.30
2017-12-22T03:11:24.530Z,12.53
2017-12-22T03:13:51.987Z,9.80
2017-12-22T03:16:19.444Z,15.80
2017-12-22T03:18:46.909Z,13.80
2017-12-22T03:21:14.358Z,11.10
2017-12-22T03:23:41.807Z,9.20
2017-12-22T03:26:09.266Z,11.37
2017-12-22T03:28:36.725Z,9.23
2017-12-22T03:31:04.177Z,13.07
2017-12-22T03:33:31.635Z,16.53
2017-12-22T03:35:59.090Z,15.40
2017-12-22T03:38:26.551Z,16.87
2017-12-22T03:40:54.018Z,24.83
2017-12-22T03:43:21.562Z,20.13
2017-12-22T03:45:48.998Z,18.43
2017-12-22T03:48:16.475Z,18.23
2017-12-22T03:50:43.927Z,28.23
2017-12-22T03:53:11.393Z,18.93
2017-12-22T03:55:38.855Z,38.43
2017-12-22T03:58:06.310Z,17.93
2017-12-22T04:00:33.786Z,18.30
2017-12-22T04:03:01.241Z,24.23
2017-12-22T04:05:28.699Z,27.90
2017-12-22T04:07:56.154Z,33.00
2017-12-22T04:10:23.631Z,23.03
2017-12-22T04:12:51.151Z,22.37
2017-12-22T04:15:18.605Z,23.33
2017-12-22T04:17:46.070Z,43.60
2017-12-22T04:20:13.519Z,40.50
2017-12-22T04:22:40.974Z,26.43
2017-12-22T04:25:08.443Z,26.03
2017-12-22T04:27:35.912Z,48.33
2017-12-22T04:30:03.368Z,43.37
2017-12-22T04:32:30.852Z,36.60
2017-12-22T04:34:59.079Z,36.77
2017-12-22T04:37:26.542Z,36.87
2017-12-22T04:39:54.006Z,29.43
2017-12-22T04:42:21.463Z,25.77
2017-12-22T04:44:48.938Z,38.73
2017-12-22T04:47:16.417Z,34.30
2017-12-22T04:49:43.875Z,44.37
2017-12-22T04:52:12.094Z,38.23
2017-12-22T04:54:39.594Z,28.63
2017-12-22T04:57:07.044Z,37.30
2017-12-22T04:59:34.502Z,31.17
2017-12-22T05:02:01.972Z,38.70
2017-12-22T05:04:30.930Z,32.60
2017-12-22T05:06:58.391Z,39.70
2017-12-22T05:09:25.862Z,29.93
2017-12-22T05:11:53.319Z,28.70
2017-12-22T05:14:20.777Z,36.43
2017-12-22T05:16:48.234Z,43.63
2017-12-22T05:19:15.695Z,33.83
2017-12-22T05:21:43.146Z,35.17
2017-12-22T05:24:10.606Z,41.67
2017-12-22T05:26:38.062Z,48.23
2017-12-22T05:29:05.523Z,41.70
2017-12-22T05:31:32.986Z,39.77
2017-12-22T05:34:01.305Z,37.80
2017-12-22T05:36:28.763Z,49.90
2017-12-22T05:38:56.238Z,41.20
2017-12-22T05:41:23.712Z,53.23
2017-12-22T05:43:51.165Z,39.40
2017-12-22T05:46:18.635Z,39.07
2017-12-22T05:48:46.091Z,46.00
2017-12-22T05:51:13.566Z,59.33
2017-12-22T05:53:41.807Z,35.50
2017-12-22T05:56:09.256Z,53.40
2017-12-22T05:58:36.719Z,51.00
2017-12-22T06:01:04.195Z,57.50
2017-12-22T06:03:31.654Z,93.70
2017-12-22T06:05:59.110Z,86.60
2017-12-22T06:08:26.574Z,61.63
2017-12-22T06:10:54.036Z,84.37
2017-12-22T06:13:22.267Z,109.03
2017-12-22T06:15:49.743Z,134.03
2017-12-22T06:18:17.215Z,146.67
2017-12-22T06:20:44.666Z,115.40
2017-12-22T06:23:12.134Z,80.53
2017-12-22T06:25:39.582Z,83.20
2017-12-22T06:28:07.047Z,88.43
2017-12-22T06:30:34.514Z,110.53
2017-12-22T06:33:02.741Z,83.33
2017-12-22T06:35:30.210Z,166.13
2017-12-22T06:37:57.679Z,92.90
2017-12-22T06:40:25.139Z,116.50
2017-12-22T06:42:52.619Z,119.17
2017-12-22T06:45:20.872Z,273.30
2017-12-22T06:47:48.331Z,154.40
2017-12-22T06:50:15.812Z,144.33
2017-12-22T06:52:44.041Z,176.60
2017-12-22T06:55:11.504Z,264.43
2017-12-22T06:57:38.959Z,113.80
2017-12-22T07:00:06.436Z,162.57
2017-12-22T07:02:33.944Z,140.10
2017-12-22T07:05:01.539Z,129.93
2017-12-22T07:07:29.013Z,104.13
2017-12-22T07:09:56.513Z,86.10
2017-12-22T07:12:23.956Z,86.50
2017-12-22T07:14:51.426Z,83.53
2017-12-22T07:17:18.891Z,164.53
2017-12-22T07:19:46.346Z,125.27
2017-12-22T07:22:13.828Z,121.37
2017-12-22T07:24:41.282Z,95.00
2017-12-22T07:27:08.734Z,74.27
2017-12-22T07:29:36.211Z,109.60
2017-12-22T07:32:03.675Z,86.90
2017-12-22T07:34:31.126Z,111.27
2017-12-22T07:36:58.600Z,64.53
2017-12-22T07:39:26.849Z,144.97
2017-12-22T07:41:54.316Z,91.53
2017-12-22T07:44:21.786Z,117.90
2017-12-22T07:46:50.006Z,135.50
2017-12-22T07:49:17.460Z,88.57
2017-12-22T07:51:44.936Z,73.60
2017-12-22T07:54:12.390Z,59.30
2017-12-22T07:56:39.860Z,229.23
2017-12-22T07:59:07.326Z,213.60
2017-12-22T08:01:34.791Z,187.23
2017-12-22T08:04:02.249Z,218.20
2017-12-22T08:06:29.715Z,318.93
2017-12-22T08:08:57.934Z,174.40
2017-12-22T08:11:25.395Z,199.40
2017-12-22T08:13:52.862Z,88.77
2017-12-22T08:16:20.324Z,123.90
2017-12-22T08:18:47.784Z,94.60
2017-12-22T08:21:15.260Z,100.73
2017-12-22T08:23:42.722Z,100.40
2017-12-22T08:26:10.181Z,147.60
2017-12-22T08:28:37.656Z,82.50
2017-12-22T08:31:05.875Z,74.47
2017-12-22T08:33:33.335Z,104.27
2017-12-22T08:36:00.798Z,65.93
2017-12-22T08:38:28.259Z,55.47
2017-12-22T08:40:55.719Z,117.17
2017-12-22T08:43:23.192Z,48.03
2017-12-22T08:45:50.646Z,65.67
2017-12-22T08:48:18.104Z,92.60
2017-12-22T08:50:45.577Z,45.87
2017-12-22T08:53:13.811Z,55.17
2017-12-22T08:55:41.272Z,52.17
2017-12-22T08:58:08.744Z,40.73
2017-12-22T09:00:36.196Z,60.50
2017-12-22T09:03:03.665Z,36.93
2017-12-22T09:05:31.132Z,34.37
2017-12-22T09:07:59.356Z,38.63
2017-12-22T09:10:26.804Z,43.33
2017-12-22T09:12:54.275Z,47.17
2017-12-22T09:15:21.730Z,55.53
2017-12-22T09:17:49.207Z,51.63
2017-12-22T09:20:16.654Z,52.17
2017-12-22T09:22:44.106Z,22.70
2017-12-22T09:25:11.567Z,19.53
2017-12-22T09:27:39.037Z,13.43
2017-12-22T09:30:06.503Z,53.30
2017-12-22T09:32:34.009Z,24.40
2017-12-22T09:35:01.524Z,26.70
2017-12-22T09:37:28.979Z,19.93
2017-12-22T09:39:56.426Z,27.53
2017-12-22T09:42:23.895Z,13.67
2017-12-22T09:44:51.356Z,24.53
2017-12-22T09:47:19.576Z,21.83
2017-12-22T09:49:47.055Z,32.83
2017-12-22T09:52:15.281Z,26.00
2017-12-22T09:54:43.511Z,20.10
2017-12-22T09:57:10.970Z,35.13
2017-12-22T09:59:38.431Z,22.23
2017-12-22T10:02:05.895Z,19.67
2017-12-22T10:04:33.367Z,43.37
2017-12-22T10:07:01.585Z,31.03
2017-12-22T10:09:29.040Z,28.63
2017-12-22T10:11:56.518Z,13.30
2017-12-22T10:14:23.971Z,25.03
2017-12-22T10:16:51.426Z,41.17
2017-12-22T10:19:18.904Z,61.27
2017-12-22T10:21:46.359Z,40.43
2017-12-22T10:24:13.824Z,32.53
2017-12-22T10:26:41.293Z,27.60
2017-12-22T10:29:09.510Z,23.33
2017-12-22T10:31:36.967Z,23.93
2017-12-22T10:34:04.447Z,47.47
2017-12-22T10:36:31.898Z,29.37
2017-12-22T10:38:59.354Z,32.93
2017-12-22T10:41:26.823Z,75.20
2017-12-22T10:43:54.284Z,29.87
2017-12-22T10:46:21.735Z,26.30
2017-12-22T10:48:49.215Z,55.57
2017-12-22T10:51:17.439Z,33.07
2017-12-22T10:53:44.906Z,28.73
2017-12-22T10:56:12.377Z,31.47
2017-12-22T10:58:39.834Z,47.97
2017-12-22T11:01:07.300Z,34.50
2017-12-22T11:03:34.772Z,32.23
2017-12-22T11:06:02.227Z,35.10
2017-12-22T11:08:29.684Z,30.80
2017-12-22T11:10:57.164Z,26.07
2017-12-22T11:13:25.408Z,44.03
2017-12-22T11:15:52.874Z,29.17
2017-12-22T11:18:20.352Z,31.17
2017-12-22T11:20:48.583Z,22.90
2017-12-22T11:23:16.038Z,36.73
2017-12-22T11:25:43.506Z,24.13
2017-12-22T11:28:10.966Z,32.20
2017-12-22T11:30:39.300Z,39.03
2017-12-22T11:33:06.785Z,21.27
2017-12-22T11:35:34.255Z,26.90
2017-12-22T11:38:01.719Z,21.20
2017-12-22T11:40:29.186Z,20.73
2017-12-22T11:42:57.407Z,22.50
2017-12-22T11:45:24.863Z,19.47
2017-12-22T11:47:52.341Z,23.67
2017-12-22T11:50:19.803Z,24.23
2017-12-22T11:52:47.259Z,24.20
2017-12-22T11:55:14.723Z,18.03
2017-12-22T11:57:42.183Z,19.73
2017-12-22T12:00:09.638Z,15.87
2017-12-22T12:02:37.123Z,16.60
2017-12-22T12:05:05.347Z,11.87
2017-12-22T12:07:32.811Z,17.20
2017-12-22T12:10:00.288Z,13.83
2017-12-22T12:12:27.744Z,15.53
2017-12-22T12:14:55.940Z,12.33
2017-12-22T12:17:23.395Z,12.33
2017-12-22T12:19:51.618Z,12.20
2017-12-22T12:22:19.093Z,17.17
2017-12-22T12:24:46.567Z,11.30
2017-12-22T12:27:14.027Z,11.23
2017-12-22T12:29:41.483Z,16.13
2017-12-22T12:32:08.949Z,15.90
2017-12-22T12:34:37.171Z,14.70
2017-12-22T12:37:04.647Z,11.07
2017-12-22T12:39:32.103Z,12.83
2017-12-22T12:41:59.558Z,13.83
2017-12-22T12:44:27.027Z,11.20
2017-12-22T12:46:55.500Z,10.10
2017-12-22T12:49:22.953Z,12.27
2017-12-22T12:51:50.406Z,14.63
2017-12-22T12:54:17.892Z,12.97
2017-12-22T12:56:45.342Z,12.77
2017-12-22T12:59:12.804Z,16.07
2017-12-22T13:01:40.272Z,13.17
2017-12-22T13:04:08.516Z,10.77
2017-12-22T13:06:35.977Z,12.50
2017-12-22T13:09:03.454Z,13.97
2017-12-22T13:11:30.911Z,12.20
2017-12-22T13:13:59.131Z,11.43
2017-12-22T13:16:26.603Z,14.50
2017-12-22T13:18:54.069Z,10.87
2017-12-22T13:21:21.527Z,10.40
2017-12-22T13:23:49.005Z,13.67
2017-12-22T13:26:16.475Z,12.53
2017-12-22T13:28:44.695Z,10.43
2017-12-22T13:31:12.170Z,13.63
2017-12-22T13:33:39.633Z,11.60
2017-12-22T13:36:07.082Z,10.33
2017-12-22T13:38:34.556Z,10.23
2017-12-22T13:41:02.011Z,11.87
2017-12-22T13:43:29.471Z,9.53
2017-12-22T13:45:56.948Z,12.97
2017-12-22T13:48:25.176Z,10.97
2017-12-22T13:50:52.634Z,9.80
2017-12-22T13:53:20.094Z,8.97
2017-12-22T13:55:47.553Z,10.30
2017-12-22T13:58:15.012Z,9.50
2017-12-22T14:00:42.476Z,11.00
2017-12-22T14:03:09.947Z,12.27
2017-12-22T14:05:37.408Z,13.93
2017-12-22T14:08:04.887Z,16.80
2017-12-22T14:10:33.116Z,12.70
2017-12-22T14:13:00.796Z,20.43
2017-12-22T14:15:28.315Z,18.97
2017-12-22T14:17:55.794Z,15.03
2017-12-22T14:20:23.257Z,12.13
2017-12-22T14:22:50.729Z,15.63
2017-12-22T14:25:18.190Z,19.50
2017-12-22T14:27:45.651Z,14.83
2017-12-22T14:30:13.927Z,20.97
2017-12-22T14:32:42.159Z,12.47
2017-12-22T14:35:09.629Z,18.87
2017-12-22T14:37:37.102Z,14.87
2017-12-22T14:40:04.566Z,12.70
2017-12-22T14:42:32.033Z,20.87
2017-12-22T14:45:00.271Z,12.53
2017-12-22T14:47:27.730Z,14.40
2017-12-22T14:49:55.190Z,18.00
2017-12-22T14:52:22.660Z,17.10
2017-12-22T14:54:50.124Z,18.10
2017-12-22T14:57:19.170Z,14.63
2017-12-22T14:59:46.643Z,16.00
2017-12-22T15:02:14.102Z,15.50
2017-12-22T15:04:41.563Z,16.47
2017-12-22T15:07:09.052Z,16.43
2017-12-22T15:09:36.513Z,17.03
2017-12-22T15:12:04.739Z,16.27
2017-12-22T15:14:32.207Z,15.30
2017-12-22T15:16:59.671Z,18.10
2017-12-22T15:19:27.135Z,18.37
2017-12-22T15:21:54.613Z,16.53
2017-12-22T15:24:22.840Z,18.60
2017-12-22T15:26:50.299Z,20.77
2017-12-22T15:29:17.777Z,15.77
2017-12-22T15:31:45.248Z,17.00
2017-12-22T15:34:12.703Z,21.30
2017-12-22T15:36:40.190Z,19.73
2017-12-22T15:39:07.654Z,19.37
2017-12-22T15:41:35.110Z,17.83
2017-12-22T15:44:02.587Z,15.10
2017-12-22T15:46:30.067Z,18.20
2017-12-22T15:48:57.522Z,17.73
2017-12-22T15:51:25.003Z,16.20
2017-12-22T15:53:52.463Z,20.33
2017-12-22T15:56:19.923Z,18.80
2017-12-22T15:58:48.167Z,18.30
2017-12-22T16:01:15.638Z,18.60
2017-12-22T16:03:43.106Z,14.90
2017-12-22T16:06:10.588Z,19.07
2017-12-22T16:08:38.070Z,24.37
2017-12-22T16:11:05.534Z,20.20
2017-12-22T16:13:32.998Z,22.97
2017-12-22T16:16:00.471Z,26.17
2017-12-22T16:18:27.935Z,15.70
2017-12-22T16:20:55.450Z,16.43
2017-12-22T16:23:22.894Z,18.10
2017-12-22T16:25:50.351Z,21.40
2017-12-22T16:28:17.822Z,18.50
2017-12-22T16:30:45.284Z,17.00
2017-12-22T16:33:12.747Z,18.37
2017-12-22T16:35:40.223Z,23.10
2017-12-22T16:38:07.671Z,24.40
2017-12-22T16:40:35.138Z,32.23
2017-12-22T16:43:02.598Z,22.67
2017-12-22T16:45:30.064Z,28.70
2017-12-22T16:47:57.520Z,32.13
2017-12-22T16:50:24.993Z,34.33
2017-12-22T16:52:53.305Z,38.00
2017-12-22T16:55:20.761Z,31.37
2017-12-22T16:57:48.225Z,29.07
2017-12-22T17:00:15.678Z,25.30
2017-12-22T17:02:43.135Z,27.80
2017-12-22T17:05:10.615Z,44.10
2017-12-22T17:07:38.071Z,34.50
2017-12-22T17:10:05.530Z,33.83
2017-12-22T17:12:32.999Z,54.57
2017-12-22T17:15:00.479Z,51.47
2017-12-22T17:17:28.715Z,48.80
2017-12-22T17:19:56.183Z,60.03
2017-12-22T17:22:24.428Z,51.10
2017-12-22T17:24:51.886Z,53.27
2017-12-22T17:27:19.349Z,35.37
2017-12-22T17:29:46.808Z,47.10
2017-12-22T17:32:14.258Z,39.17
2017-12-22T17:34:41.731Z,34.97
2017-12-22T17:37:09.187Z,35.53
2017-12-22T17:39:36.642Z,29.97
2017-12-22T17:42:04.122Z,34.13
2017-12-22T17:44:31.588Z,42.30
2017-12-22T17:46:59.049Z,50.67
2017-12-22T17:49:26.519Z,49.13
2017-12-22T17:51:54.750Z,49.57
2017-12-22T17:54:22.208Z,46.60
2017-12-22T17:56:49.687Z,48.80
2017-12-22T17:59:17.144Z,58.97
2017-12-22T18:01:44.612Z,43.40
2017-12-22T18:04:12.856Z,50.40
2017-12-22T18:06:40.312Z,60.50
2017-12-22T18:09:07.772Z,58.40
2017-12-22T18:11:35.239Z,56.63
2017-12-22T18:14:02.692Z,55.70
2017-12-22T18:16:30.166Z,55.23
2017-12-22T18:18:57.626Z,41.17
2017-12-22T18:21:25.863Z,51.13
2017-12-22T18:23:53.306Z,45.83
2017-12-22T18:26:20.771Z,43.70
2017-12-22T18:28:48.236Z,45.70
2017-12-22T18:31:15.696Z,48.40
2017-12-22T18:33:43.163Z,43.77
2017-12-22T18:36:10.620Z,38.60
2017-12-22T18:38:38.086Z,37.23
2017-12-22T18:41:05.557Z,38.10
2017-12-22T18:43:33.807Z,35.80
2017-12-22T18:46:01.250Z,35.43
2017-12-22T18:48:28.727Z,22.60
2017-12-22T18:50:56.410Z,20.20
2017-12-22T18:53:24.635Z,25.33
2017-12-22T18:55:52.098Z,23.10
2017-12-22T18:58:19.559Z,29.40
2017-12-22T19:00:47.015Z,26.00
2017-12-22T19:03:26.358Z,26.87
2017-12-22T19:05:53.827Z,28.60
2017-12-22T19:08:21.286Z,26.70
2017-12-22T19:10:48.750Z,23.40
2017-12-22T19:13:16.970Z,30.83
2017-12-22T19:15:44.435Z,42.13
2017-12-22T19:18:11.910Z,30.97
2017-12-22T19:20:39.358Z,80.60
2017-12-22T19:23:06.820Z,31.13
2017-12-22T19:25:34.300Z,29.10
2017-12-22T19:28:01.760Z,38.63
2017-12-22T19:30:29.223Z,47.10
2017-12-22T19:32:56.739Z,47.93
2017-12-22T19:35:24.194Z,43.90
2017-12-22T19:37:51.655Z,58.23
2017-12-22T19:40:19.896Z,49.97
2017-12-22T19:42:47.342Z,27.77
2017-12-22T19:45:15.587Z,24.10
2017-12-22T19:47:43.056Z,44.57
2017-12-22T19:50:11.278Z,36.70
2017-12-22T19:52:38.829Z,45.60
2017-12-22T19:55:06.296Z,37.73
2017-12-22T19:57:33.770Z,29.47
2017-12-22T20:00:01.227Z,27.47
2017-12-22T20:02:28.703Z,25.00
2017-12-22T20:04:56.177Z,34.40
2017-12-22T20:07:23.632Z,24.90
2017-12-22T20:09:51.121Z,30.30
2017-12-22T20:12:18.564Z,28.77
2017-12-22T20:14:46.043Z,27.07
2017-12-22T20:17:13.510Z,18.80
2017-12-22T20:19:40.973Z,21.37
2017-12-22T20:22:08.423Z,30.73
2017-12-22T20:24:35.911Z,25.63
2017-12-22T20:27:03.432Z,27.50
2017-12-22T20:29:30.836Z,40.73
2017-12-22T20:31:58.299Z,33.87
2017-12-22T20:34:26.519Z,38.47
2017-12-22T20:36:53.975Z,30.20
2017-12-22T20:39:21.506Z,26.90
2017-12-22T20:41:48.916Z,42.33
2017-12-22T20:44:16.375Z,38.83
2017-12-22T20:46:43.851Z,32.40
2017-12-22T20:49:11.307Z,46.80
2017-12-22T20:51:38.773Z,27.23
2017-12-22T20:54:07.002Z,30.70
2017-12-22T20:56:34.471Z,22.77
2017-12-22T20:59:01.927Z,27.53
2017-12-22T21:01:29.399Z,26.10
2017-12-22T21:03:56.859Z,27.33
2017-12-22T21:06:24.324Z,34.97
2017-12-22T21:08:51.787Z,24.97
2017-12-22T21:11:20.011Z,27.17
2017-12-22T21:13:47.468Z,28.67
2017-12-22T21:16:14.935Z,25.33
2017-12-22T21:18:42.395Z,33.90
2017-12-22T21:21:09.862Z,25.03
2017-12-22T21:23:37.335Z,20.83
2017-12-22T21:26:04.795Z,32.17
2017-12-22T21:28:32.247Z,29.07
2017-12-22T21:30:59.719Z,28.60
2017-12-22T21:33:27.947Z,38.27
2017-12-22T21:35:55.411Z,34.10
2017-12-22T21:38:22.886Z,45.83
2017-12-22T21:40:50.346Z,37.40
2017-12-22T21:43:17.799Z,42.20
2017-12-22T21:45:45.279Z,44.30
2017-12-22T21:48:13.515Z,47.20
2017-12-22T21:50:40.970Z,39.53
2017-12-22T21:53:08.438Z,37.10
2017-12-22T21:55:35.911Z,43.00
2017-12-22T21:58:03.370Z,43.30
2017-12-22T22:00:30.909Z,43.90
2017-12-22T22:02:58.331Z,50.00
2017-12-22T22:05:25.776Z,48.43
2017-12-22T22:07:53.244Z,46.80
2017-12-22T22:10:20.699Z,47.13
2017-12-22T22:12:48.176Z,50.13
2017-12-22T22:15:15.647Z,49.37
2017-12-22T22:17:43.114Z,57.80
2017-12-22T22:20:10.577Z,50.83
2017-12-22T22:22:38.042Z,52.83
2017-12-22T22:25:06.274Z,43.03
2017-12-22T22:27:33.727Z,49.83
2017-12-22T22:30:01.202Z,41.80
2017-12-22T22:32:28.651Z,63.60
2017-12-22T22:34:56.107Z,57.67
2017-12-22T22:37:23.579Z,46.73
2017-12-22T22:39:51.039Z,56.27
2017-12-22T22:42:18.503Z,56.63
2017-12-22T22:44:45.971Z,48.13
2017-12-22T22:47:14.186Z,60.13
2017-12-22T22:49:41.648Z,60.30
2017-12-22T22:52:09.107Z,49.20
2017-12-22T22:54:36.557Z,63.17
2017-12-22T22:57:04.019Z,63.27
2017-12-22T22:59:31.496Z,53.83
2017-12-22T23:01:58.956Z,66.60
2017-12-22T23:04:26.412Z,53.97
2017-12-22T23:06:53.890Z,57.77
2017-12-22T23:09:21.352Z,49.50
2017-12-22T23:11:48.823Z,63.20
2017-12-22T23:14:17.050Z,45.37
2017-12-22T23:16:44.508Z,56.70
2017-12-22T23:19:11.966Z,76.27
2017-12-22T23:21:39.445Z,57.17
2017-12-22T23:24:06.898Z,50.00
2017-12-22T23:26:34.766Z,54.50
2017-12-22T23:29:02.234Z,55.30
2017-12-22T23:31:54.205Z,71.23
2017-12-22T23:34:21.674Z,46.47
2017-12-22T23:36:49.136Z,54.83
2017-12-22T23:39:16.595Z,55.10
2017-12-22T23:41:44.058Z,52.10
2017-12-22T23:44:11.515Z,45.30
2017-12-22T23:46:38.981Z,52.03
2017-12-22T23:49:06.450Z,52.50
2017-12-22T23:51:33.922Z,43.37
2017-12-22T23:54:02.152Z,40.83
2017-12-22T23:56:29.623Z,34.00
2017-12-22T23:58:57.070Z,38.07
